createdAt,value
2019-03-11T00:00:00.557Z,1001.20
2019-03-11T00:01:00.549Z,1001.20
2019-03-11T00:02:00.540Z,1001.18
2019-03-11T00:03:00.531Z,1001.13
2019-03-11T00:04:00.521Z,1001.10
2019-03-11T00:05:00.513Z,1001.08
2019-03-11T00:06:00.505Z,1001.07
2019-03-11T00:07:00.496Z,1001.00
2019-03-11T00:08:00.527Z,1000.98
2019-03-11T00:09:00.482Z,1000.97
2019-03-11T00:10:00.516Z,1001.00
2019-03-11T00:11:00.462Z,1000.97
2019-03-11T00:12:00.454Z,1000.90
2019-03-11T00:13:00.449Z,1000.92
2019-03-11T00:14:00.436Z,1000.91
2019-03-11T00:15:00.430Z,1000.84
2019-03-11T00:16:00.457Z,1000.82
2019-03-11T00:17:00.411Z,1000.83
2019-03-11T00:18:00.403Z,1000.92
2019-03-11T00:19:00.394Z,1000.89
2019-03-11T00:20:00.465Z,1000.99
2019-03-11T00:21:00.376Z,1001.00
2019-03-11T00:22:00.379Z,1001.01
2019-03-11T00:23:00.358Z,1001.09
2019-03-11T00:24:00.354Z,1001.02
2019-03-11T00:25:00.344Z,1001.06
2019-03-11T00:26:00.380Z,1001.05
2019-03-11T00:27:00.326Z,1000.96
2019-03-11T00:28:00.317Z,1000.98
2019-03-11T00:29:00.309Z,1001.01
2019-03-11T00:30:00.350Z,1000.86
2019-03-11T00:31:00.294Z,1000.83
2019-03-11T00:32:00.283Z,1000.79
2019-03-11T00:33:00.276Z,1000.77
2019-03-11T00:34:00.268Z,1000.71
2019-03-11T00:35:00.332Z,1000.77
2019-03-11T00:36:00.251Z,1000.78
2019-03-11T00:37:00.242Z,1000.81
2019-03-11T00:38:00.237Z,1000.79
2019-03-11T00:39:00.226Z,1000.82
2019-03-11T00:40:00.332Z,1000.89
2019-03-11T00:41:00.210Z,1000.94
2019-03-11T00:42:00.200Z,1000.96
2019-03-11T00:43:00.191Z,1000.91
2019-03-11T00:44:00.184Z,1000.98
2019-03-11T00:45:00.327Z,1000.98
2019-03-11T00:46:00.170Z,1001.03
2019-03-11T00:47:00.160Z,1001.00
2019-03-11T00:48:02.350Z,1001.01
2019-03-11T00:49:00.142Z,1001.04
2019-03-11T00:50:00.322Z,1001.09
2019-03-11T00:51:00.125Z,1001.11
2019-03-11T00:52:00.119Z,1001.18
2019-03-11T00:53:00.111Z,1001.14
2019-03-11T00:54:00.100Z,1001.08
2019-03-11T00:55:00.172Z,1001.16
2019-03-11T00:56:00.085Z,1001.06
2019-03-11T00:57:00.075Z,1001.08
2019-03-11T00:58:00.067Z,1001.12
2019-03-11T00:59:00.059Z,1001.05
2019-03-11T01:00:00.050Z,1001.06
2019-03-11T01:01:00.042Z,1001.05
2019-03-11T01:02:00.034Z,1000.95
2019-03-11T01:03:00.023Z,1000.98
2019-03-11T01:04:00.015Z,1000.94
2019-03-11T01:05:00.007Z,1000.99
2019-03-11T01:05:59.999Z,1000.96
2019-03-11T01:06:59.991Z,1000.90
2019-03-11T01:07:59.982Z,1000.91
2019-03-11T01:08:59.974Z,1000.96
2019-03-11T01:09:59.965Z,1000.96
2019-03-11T01:10:59.956Z,1000.91
2019-03-11T01:11:59.947Z,1000.89
2019-03-11T01:12:59.941Z,1000.89
2019-03-11T01:13:59.932Z,1000.84
2019-03-11T01:14:59.922Z,1000.78
2019-03-11T01:15:59.914Z,1000.72
2019-03-11T01:16:59.904Z,1000.74
2019-03-11T01:17:59.898Z,1000.67
2019-03-11T01:18:59.888Z,1000.67
2019-03-11T01:19:59.879Z,1000.68
2019-03-11T01:20:59.871Z,1000.65
2019-03-11T01:21:59.866Z,1000.64
2019-03-11T01:22:59.852Z,1000.58
2019-03-11T01:23:59.845Z,1000.58
2019-03-11T01:24:59.836Z,1000.57
2019-03-11T01:25:59.828Z,1000.51
2019-03-11T01:26:59.819Z,1000.52
2019-03-11T01:27:59.810Z,1000.52
2019-03-11T01:28:59.802Z,1000.54
2019-03-11T01:29:59.793Z,1000.57
2019-03-11T01:30:59.784Z,1000.53
2019-03-11T01:31:59.779Z,1000.60
2019-03-11T01:32:59.768Z,1000.59
2019-03-11T01:33:59.760Z,1000.59
2019-03-11T01:34:59.749Z,1000.55
2019-03-11T01:35:59.742Z,1000.60
2019-03-11T01:36:59.733Z,1000.61
2019-03-11T01:37:59.724Z,1000.59
2019-03-11T01:38:59.715Z,1000.63
2019-03-11T01:39:59.708Z,1000.67
2019-03-11T01:40:59.698Z,1000.66
2019-03-11T01:41:59.690Z,1000.69
2019-03-11T01:42:59.680Z,1000.65
2019-03-11T01:43:59.672Z,1000.64
2019-03-11T01:44:59.665Z,1000.71
2019-03-11T01:45:59.657Z,1000.74
2019-03-11T01:47:52.982Z,1000.63
2019-03-11T01:48:52.975Z,1000.67
2019-03-11T01:49:52.965Z,1000.70
2019-03-11T01:50:52.955Z,1000.71
2019-03-11T01:52:36.265Z,1000.73
2019-03-11T01:53:36.256Z,1000.76
2019-03-11T01:54:36.248Z,1000.75
2019-03-11T01:55:36.240Z,1000.74
2019-03-11T01:56:36.230Z,1000.79
2019-03-11T01:57:36.222Z,1000.66
2019-03-11T01:58:36.213Z,1000.71
2019-03-11T01:59:36.204Z,1000.85
2019-03-11T02:00:36.196Z,1000.83
2019-03-11T02:01:36.189Z,1000.93
2019-03-11T02:02:36.180Z,1000.82
2019-03-11T02:03:36.171Z,1000.88
2019-03-11T02:04:36.163Z,1000.80
2019-03-11T02:05:36.155Z,1000.74
2019-03-11T02:06:36.145Z,1000.77
2019-03-11T02:07:36.138Z,1000.66
2019-03-11T02:08:36.129Z,1000.72
2019-03-11T02:09:36.121Z,1000.67
2019-03-11T02:10:36.112Z,1000.57
2019-03-11T02:11:36.305Z,1000.63
2019-03-11T02:12:36.095Z,1000.61
2019-03-11T02:13:36.087Z,1000.64
2019-03-11T02:14:36.079Z,1000.58
2019-03-11T02:15:36.069Z,1000.63
2019-03-11T02:16:36.063Z,1000.60
2019-03-11T02:17:36.053Z,1000.60
2019-03-11T02:18:36.044Z,1000.55
2019-03-11T02:19:36.035Z,1000.54
2019-03-11T02:20:36.027Z,1000.64
2019-03-11T02:21:36.020Z,1000.55
2019-03-11T02:23:26.959Z,1000.53
2019-03-11T02:24:24.327Z,1000.55
2019-03-11T02:25:24.319Z,1000.57
2019-03-11T02:26:24.311Z,1000.55
2019-03-11T02:27:24.301Z,1000.58
2019-03-11T02:28:24.294Z,1000.59
2019-03-11T02:29:24.286Z,1000.61
2019-03-11T02:30:24.285Z,1000.51
2019-03-11T02:31:24.273Z,1000.50
2019-03-11T02:32:24.273Z,1000.49
2019-03-11T02:33:24.251Z,1000.56
2019-03-11T02:34:24.250Z,1000.53
2019-03-11T02:35:24.240Z,1000.50
2019-03-11T02:36:24.227Z,1000.57
2019-03-11T02:37:24.218Z,1000.48
2019-03-11T02:38:24.211Z,1000.47
2019-03-11T02:39:24.201Z,1000.54
2019-03-11T02:40:24.195Z,1000.50
2019-03-11T02:41:24.185Z,1000.48
2019-03-11T02:42:24.177Z,1000.50
2019-03-11T02:43:24.167Z,1000.50
2019-03-11T02:44:24.158Z,1000.49
2019-03-11T02:45:24.149Z,1000.49
2019-03-11T02:46:24.142Z,1000.39
2019-03-11T02:47:24.133Z,1000.44
2019-03-11T02:48:24.126Z,1000.47
2019-03-11T02:49:24.120Z,1000.38
2019-03-11T02:50:24.121Z,1000.41
2019-03-11T02:51:24.098Z,1000.53
2019-03-11T02:52:24.093Z,1000.46
2019-03-11T02:53:24.082Z,1000.40
2019-03-11T02:54:24.076Z,1000.48
2019-03-11T02:55:24.063Z,1000.53
2019-03-11T02:56:24.056Z,1000.49
2019-03-11T02:57:24.050Z,1000.51
2019-03-11T02:58:24.039Z,1000.53
2019-03-11T02:59:24.030Z,1000.51
2019-03-11T03:00:24.028Z,1000.55
2019-03-11T03:01:24.015Z,1000.54
2019-03-11T03:02:24.039Z,1000.53
2019-03-11T03:03:23.996Z,1000.52
2019-03-11T03:04:23.988Z,1000.54
2019-03-11T03:05:23.980Z,1000.58
2019-03-11T03:06:23.971Z,1000.48
2019-03-11T03:07:23.962Z,1000.54
2019-03-11T03:08:23.955Z,1000.54
2019-03-11T03:09:23.944Z,1000.60
2019-03-11T03:10:23.937Z,1000.52
2019-03-11T03:11:23.932Z,1000.54
2019-03-11T03:12:23.922Z,1000.53
2019-03-11T03:13:23.912Z,1000.48
2019-03-11T03:14:23.907Z,1000.51
2019-03-11T03:15:23.893Z,1000.49
2019-03-11T03:16:23.890Z,1000.51
2019-03-11T03:17:23.877Z,1000.46
2019-03-11T03:18:23.872Z,1000.52
2019-03-11T03:19:23.861Z,1000.56
2019-03-11T03:20:23.851Z,1000.48
2019-03-11T03:21:23.843Z,1000.52
2019-03-11T03:22:23.836Z,1000.48
2019-03-11T03:23:23.824Z,1000.47
2019-03-11T03:24:23.909Z,1000.47
2019-03-11T03:25:34.038Z,1000.47
2019-03-11T03:26:23.800Z,1000.47
2019-03-11T03:27:23.792Z,1000.48
2019-03-11T03:28:23.786Z,1000.47
2019-03-11T03:29:23.774Z,1000.50
2019-03-11T03:30:23.765Z,1000.45
2019-03-11T03:31:23.769Z,1000.49
2019-03-11T03:32:23.751Z,1000.44
2019-03-11T03:33:23.753Z,1000.44
2019-03-11T03:34:23.738Z,1000.43
2019-03-11T03:35:23.780Z,1000.39
2019-03-11T03:36:23.714Z,1000.43
2019-03-11T03:37:23.704Z,1000.38
2019-03-11T03:38:30.538Z,1000.43
2019-03-11T03:39:23.689Z,1000.40
2019-03-11T03:40:23.680Z,1000.39
2019-03-11T03:41:23.671Z,1000.38
2019-03-11T03:42:23.665Z,1000.37
2019-03-11T03:43:23.654Z,1000.37
2019-03-11T03:44:23.653Z,1000.29
2019-03-11T03:45:23.650Z,1000.39
2019-03-11T03:46:23.627Z,1000.32
2019-03-11T03:47:23.621Z,1000.35
2019-03-11T03:48:23.623Z,1000.40
2019-03-11T03:49:23.622Z,1000.38
2019-03-11T03:50:23.594Z,1000.31
2019-03-11T03:51:23.590Z,1000.33
2019-03-11T03:52:23.577Z,1000.32
2019-03-11T03:53:23.575Z,1000.26
2019-03-11T03:54:23.558Z,1000.28
2019-03-11T03:55:23.563Z,1000.25
2019-03-11T03:56:23.543Z,1000.26
2019-03-11T03:57:23.532Z,1000.25
2019-03-11T03:58:23.526Z,1000.24
2019-03-11T03:59:23.517Z,1000.24
2019-03-11T04:00:23.521Z,1000.21
2019-03-11T04:01:23.501Z,1000.19
2019-03-11T04:02:23.496Z,1000.21
2019-03-11T04:03:23.482Z,1000.21
2019-03-11T04:04:23.560Z,1000.16
2019-03-11T04:05:23.468Z,1000.15
2019-03-11T04:06:23.458Z,1000.14
2019-03-11T04:07:23.449Z,1000.17
2019-03-11T04:08:23.445Z,1000.22
2019-03-11T04:09:23.433Z,1000.24
2019-03-11T04:10:23.426Z,1000.23
2019-03-11T04:11:23.415Z,1000.24
2019-03-11T04:12:23.413Z,1000.25
2019-03-11T04:13:23.398Z,1000.22
2019-03-11T04:14:23.402Z,1000.27
2019-03-11T04:15:23.381Z,1000.29
2019-03-11T04:16:23.373Z,1000.29
2019-03-11T04:17:23.371Z,1000.29
2019-03-11T04:18:23.356Z,1000.31
2019-03-11T04:19:23.361Z,1000.35
2019-03-11T04:20:23.416Z,1000.41
2019-03-11T04:21:23.333Z,1000.39
2019-03-11T04:22:23.325Z,1000.36
2019-03-11T04:23:23.314Z,1000.41
2019-03-11T04:24:23.305Z,1000.40
2019-03-11T04:25:23.300Z,1000.39
2019-03-11T04:26:23.290Z,1000.44
2019-03-11T04:27:23.286Z,1000.46
2019-03-11T04:28:23.272Z,1000.46
2019-03-11T04:29:23.264Z,1000.53
2019-03-11T04:30:23.259Z,1000.48
2019-03-11T04:31:23.252Z,1000.53
2019-03-11T04:32:23.239Z,1000.50
2019-03-11T04:33:23.230Z,1000.49
2019-03-11T04:34:23.225Z,1000.55
2019-03-11T04:35:23.213Z,1000.56
2019-03-11T04:36:23.204Z,1000.54
2019-03-11T04:37:23.196Z,1000.59
2019-03-11T04:38:23.189Z,1000.56
2019-03-11T04:39:23.182Z,1000.54
2019-03-11T04:40:23.171Z,1000.57
2019-03-11T04:41:23.164Z,1000.60
2019-03-11T04:42:23.155Z,1000.61
2019-03-11T04:43:23.148Z,1000.59
2019-03-11T04:44:23.136Z,1000.60
2019-03-11T04:45:23.129Z,1000.59
2019-03-11T04:46:23.122Z,1000.59
2019-03-11T04:47:23.112Z,1000.60
2019-03-11T04:48:23.123Z,1000.59
2019-03-11T04:49:23.096Z,1000.56
2019-03-11T04:50:23.091Z,1000.58
2019-03-11T04:51:23.077Z,1000.57
2019-03-11T04:52:23.069Z,1000.58
2019-03-11T04:53:23.062Z,1000.57
2019-03-11T04:54:23.055Z,1000.60
2019-03-11T04:55:23.044Z,1000.62
2019-03-11T04:56:23.036Z,1000.58
2019-03-11T04:57:23.596Z,1000.58
2019-03-11T04:58:23.020Z,1000.63
2019-03-11T04:59:23.009Z,1000.63
2019-03-11T05:00:23.002Z,1000.61
2019-03-11T05:01:22.994Z,1000.62
2019-03-11T05:02:22.985Z,1000.62
2019-03-11T05:03:22.975Z,1000.64
2019-03-11T05:04:22.968Z,1000.58
2019-03-11T05:05:22.960Z,1000.62
2019-03-11T05:06:22.951Z,1000.67
2019-03-11T05:07:22.942Z,1000.62
2019-03-11T05:08:22.934Z,1000.58
2019-03-11T05:09:22.926Z,1000.59
2019-03-11T05:10:22.917Z,1000.64
2019-03-11T05:11:22.907Z,1000.62
2019-03-11T05:12:22.899Z,1000.63
2019-03-11T05:13:22.890Z,1000.64
2019-03-11T05:14:22.882Z,1000.61
2019-03-11T05:15:22.877Z,1000.61
2019-03-11T05:16:22.868Z,1000.62
2019-03-11T05:17:22.857Z,1000.67
2019-03-11T05:18:22.848Z,1000.59
2019-03-11T05:19:22.839Z,1000.62
2019-03-11T05:20:22.832Z,1000.62
2019-03-11T05:21:22.822Z,1000.66
2019-03-11T05:22:22.814Z,1000.59
2019-03-11T05:23:22.804Z,1000.61
2019-03-11T05:24:22.796Z,1000.63
2019-03-11T05:25:22.788Z,1000.60
2019-03-11T05:26:22.779Z,1000.63
2019-03-11T05:27:22.770Z,1000.62
2019-03-11T05:28:22.763Z,1000.68
2019-03-11T05:29:22.768Z,1000.70
2019-03-11T05:30:22.744Z,1000.69
2019-03-11T05:31:22.735Z,1000.68
2019-03-11T05:32:22.728Z,1000.63
2019-03-11T05:33:22.722Z,1000.64
2019-03-11T05:34:22.712Z,1000.65
2019-03-11T05:35:22.716Z,1000.67
2019-03-11T05:36:22.695Z,1000.66
2019-03-11T05:37:22.685Z,1000.71
2019-03-11T05:38:22.676Z,1000.73
2019-03-11T05:39:22.669Z,1000.78
2019-03-11T05:40:22.659Z,1000.85
2019-03-11T05:41:22.652Z,1000.84
2019-03-11T05:42:22.642Z,1000.85
2019-03-11T05:43:22.633Z,1000.86
2019-03-11T05:44:22.629Z,1000.83
2019-03-11T05:45:22.617Z,1000.86
2019-03-11T05:46:22.609Z,1000.85
2019-03-11T05:47:22.601Z,1000.86
2019-03-11T05:48:22.592Z,1000.87
2019-03-11T05:49:22.584Z,1000.83
2019-03-11T05:50:22.575Z,1000.89
2019-03-11T05:51:31.038Z,1000.92
2019-03-11T05:52:22.558Z,1000.88
2019-03-11T05:53:22.549Z,1000.86
2019-03-11T05:54:22.543Z,1000.96
2019-03-11T05:55:22.532Z,1000.98
2019-03-11T05:56:22.523Z,1000.99
2019-03-11T05:57:22.517Z,1000.99
2019-03-11T05:58:22.507Z,1001.01
2019-03-11T05:59:22.499Z,1000.98
2019-03-11T06:00:22.509Z,1001.01
2019-03-11T06:01:22.482Z,1001.02
2019-03-11T06:02:22.472Z,1001.10
2019-03-11T06:03:22.464Z,1000.97
2019-03-11T06:04:22.455Z,1000.99
2019-03-11T06:05:22.446Z,1001.00
2019-03-11T06:06:22.438Z,1000.96
2019-03-11T06:07:22.430Z,1000.99
2019-03-11T06:08:22.422Z,1000.99
2019-03-11T06:09:22.414Z,1001.06
2019-03-11T06:10:22.404Z,1001.06
2019-03-11T06:11:22.396Z,1001.05
2019-03-11T06:12:22.387Z,1001.00
2019-03-11T06:13:22.379Z,1000.97
2019-03-11T06:14:22.373Z,1001.07
2019-03-11T06:15:22.362Z,1001.05
2019-03-11T06:16:22.352Z,1000.98
2019-03-11T06:17:22.345Z,1001.10
2019-03-11T06:18:22.338Z,1001.06
2019-03-11T06:19:22.327Z,1001.09
2019-03-11T06:20:22.318Z,1001.06
2019-03-11T06:21:22.311Z,1001.15
2019-03-11T06:22:22.303Z,1001.15
2019-03-11T06:23:22.292Z,1001.08
2019-03-11T06:24:22.283Z,1001.09
2019-03-11T06:25:22.279Z,1001.18
2019-03-11T06:26:22.266Z,1001.13
2019-03-11T06:27:22.475Z,1001.26
2019-03-11T06:28:22.252Z,1001.24
2019-03-11T06:29:30.112Z,1001.23
2019-03-11T06:30:22.237Z,1001.25
2019-03-11T06:31:22.223Z,1001.21
2019-03-11T06:32:22.216Z,1001.32
2019-03-11T06:33:22.210Z,1001.25
2019-03-11T06:34:22.198Z,1001.32
2019-03-11T06:35:22.198Z,1001.37
2019-03-11T06:36:22.179Z,1001.32
2019-03-11T06:37:22.172Z,1001.30
2019-03-11T06:38:22.163Z,1001.32
2019-03-11T06:39:22.154Z,1001.37
2019-03-11T06:40:22.146Z,1001.34
2019-03-11T06:41:22.141Z,1001.34
2019-03-11T06:42:22.129Z,1001.35
2019-03-11T06:43:22.126Z,1001.39
2019-03-11T06:44:22.115Z,1001.38
2019-03-11T06:45:22.104Z,1001.37
2019-03-11T06:46:22.096Z,1001.41
2019-03-11T06:47:22.086Z,1001.40
2019-03-11T06:48:22.077Z,1001.30
2019-03-11T06:49:22.073Z,1001.37
2019-03-11T06:50:22.060Z,1001.36
2019-03-11T06:51:22.053Z,1001.33
2019-03-11T06:52:22.044Z,1001.41
2019-03-11T06:53:22.057Z,1001.37
2019-03-11T06:54:22.027Z,1001.36
2019-03-11T06:55:22.023Z,1001.40
2019-03-11T06:56:22.008Z,1001.48
2019-03-11T06:57:22.002Z,1001.33
2019-03-11T06:58:21.993Z,1001.40
2019-03-11T06:59:21.983Z,1001.37
2019-03-11T07:00:21.989Z,1001.39
2019-03-11T07:01:21.967Z,1001.32
2019-03-11T07:02:21.958Z,1001.44
2019-03-11T07:03:21.950Z,1001.44
2019-03-11T07:04:21.941Z,1001.43
2019-03-11T07:05:21.932Z,1001.40
2019-03-11T07:06:21.925Z,1001.44
2019-03-11T07:07:21.917Z,1001.48
2019-03-11T07:08:21.906Z,1001.45
2019-03-11T07:09:22.009Z,1001.49
2019-03-11T07:10:21.891Z,1001.44
2019-03-11T07:11:21.881Z,1001.48
2019-03-11T07:12:21.873Z,1001.44
2019-03-11T07:13:21.867Z,1001.44
2019-03-11T07:14:21.857Z,1001.45
2019-03-11T07:15:21.846Z,1001.52
2019-03-11T07:16:21.846Z,1001.50
2019-03-11T07:17:21.835Z,1001.54
2019-03-11T07:18:21.825Z,1001.53
2019-03-11T07:19:21.814Z,1001.63
2019-03-11T07:20:21.810Z,1001.56
2019-03-11T07:21:21.797Z,1001.72
2019-03-11T07:22:21.790Z,1001.82
2019-03-11T07:23:21.779Z,1001.81
2019-03-11T07:24:21.771Z,1001.70
2019-03-11T07:25:21.763Z,1001.70
2019-03-11T07:26:21.755Z,1001.63
2019-03-11T07:27:21.745Z,1001.71
2019-03-11T07:28:21.736Z,1001.66
2019-03-11T07:29:21.731Z,1001.76
2019-03-11T07:30:21.720Z,1001.70
2019-03-11T07:31:21.710Z,1001.71
2019-03-11T07:32:21.714Z,1001.77
2019-03-11T07:33:21.695Z,1001.85
2019-03-11T07:34:21.685Z,1001.71
2019-03-11T07:35:21.675Z,1001.73
2019-03-11T07:36:21.710Z,1001.70
2019-03-11T07:37:21.758Z,1001.75
2019-03-11T07:38:21.650Z,1001.81
2019-03-11T07:39:21.642Z,1001.71
2019-03-11T07:40:29.589Z,1001.73
2019-03-11T07:41:21.627Z,1001.72
2019-03-11T07:42:21.616Z,1001.79
2019-03-11T07:43:21.607Z,1001.85
2019-03-11T07:44:21.598Z,1001.76
2019-03-11T07:45:21.591Z,1001.79
2019-03-11T07:46:21.581Z,1001.81
2019-03-11T07:47:21.573Z,1001.85
2019-03-11T07:48:21.564Z,1001.87
2019-03-11T07:49:21.556Z,1001.92
2019-03-11T07:50:21.547Z,1001.86
2019-03-11T07:51:21.541Z,1001.96
2019-03-11T07:52:21.530Z,1001.90
2019-03-11T07:53:21.521Z,1001.94
2019-03-11T07:54:21.514Z,1001.95
2019-03-11T07:55:21.503Z,1001.96
2019-03-11T07:56:21.495Z,1001.97
2019-03-11T07:57:21.489Z,1002.01
2019-03-11T07:58:21.479Z,1002.00
2019-03-11T07:59:21.470Z,1002.07
2019-03-11T08:00:21.460Z,1002.11
2019-03-11T08:01:21.453Z,1002.12
2019-03-11T08:02:21.444Z,1002.09
2019-03-11T08:03:21.435Z,1002.10
2019-03-11T08:04:21.430Z,1002.21
2019-03-11T08:05:21.419Z,1002.14
2019-03-11T08:06:21.414Z,1002.15
2019-03-11T08:07:21.400Z,1002.15
2019-03-11T08:08:21.393Z,1002.16
2019-03-11T08:09:21.385Z,1002.17
2019-03-11T08:10:21.376Z,1002.20
2019-03-11T08:11:21.367Z,1002.14
2019-03-11T08:12:21.359Z,1002.11
2019-03-11T08:13:21.350Z,1002.14
2019-03-11T08:14:21.342Z,1002.08
2019-03-11T08:15:21.332Z,1002.12
2019-03-11T08:16:21.323Z,1002.11
2019-03-11T08:17:21.317Z,1002.17
2019-03-11T08:18:21.307Z,1002.16
2019-03-11T08:19:21.301Z,1002.21
2019-03-11T08:20:21.288Z,1002.24
2019-03-11T08:21:21.281Z,1002.25
2019-03-11T08:22:21.272Z,1002.28
2019-03-11T08:23:21.280Z,1002.30
2019-03-11T08:24:21.261Z,1002.25
2019-03-11T08:25:21.268Z,1002.30
2019-03-11T08:26:21.239Z,1002.27
2019-03-11T08:27:21.229Z,1002.36
2019-03-11T08:28:21.224Z,1002.34
2019-03-11T08:29:21.213Z,1002.34
2019-03-11T08:30:21.205Z,1002.41
2019-03-11T08:31:21.196Z,1002.38
2019-03-11T08:32:21.188Z,1002.40
2019-03-11T08:33:21.181Z,1002.41
2019-03-11T08:34:21.171Z,1002.38
2019-03-11T08:35:21.163Z,1002.36
2019-03-11T08:36:21.154Z,1002.34
2019-03-11T08:37:21.147Z,1002.38
2019-03-11T08:38:21.138Z,1002.37
2019-03-11T08:39:21.130Z,1002.44
2019-03-11T08:40:21.126Z,1002.41
2019-03-11T08:41:21.113Z,1002.41
2019-03-11T08:42:21.104Z,1002.41
2019-03-11T08:43:21.114Z,1002.51
2019-03-11T08:44:21.088Z,1002.48
2019-03-11T08:45:21.079Z,1002.49
2019-03-11T08:46:21.071Z,1002.50
2019-03-11T08:47:21.062Z,1002.49
2019-03-11T08:48:21.054Z,1002.52
2019-03-11T08:49:21.070Z,1002.45
2019-03-11T08:50:21.040Z,1002.55
2019-03-11T08:51:21.029Z,1002.52
2019-03-11T08:52:21.071Z,1002.56
2019-03-11T08:53:21.014Z,1002.53
2019-03-11T08:54:21.006Z,1002.56
2019-03-11T08:55:20.998Z,1002.59
2019-03-11T08:56:20.989Z,1002.67
2019-03-11T08:57:21.006Z,1002.62
2019-03-11T08:58:20.974Z,1002.76
2019-03-11T08:59:20.963Z,1002.68
2019-03-11T09:00:20.957Z,1002.68
2019-03-11T09:01:20.948Z,1002.78
2019-03-11T09:02:20.941Z,1002.72
2019-03-11T09:03:20.932Z,1002.85
2019-03-11T09:04:20.924Z,1002.80
2019-03-11T09:05:20.920Z,1002.77
2019-03-11T09:06:20.909Z,1002.89
2019-03-11T09:07:20.899Z,1002.82
2019-03-11T09:08:20.898Z,1002.71
2019-03-11T09:09:20.885Z,1002.79
2019-03-11T09:10:20.878Z,1002.70
2019-03-11T09:11:20.871Z,1002.75
2019-03-11T09:12:20.865Z,1002.88
2019-03-11T09:13:20.854Z,1002.95
2019-03-11T09:14:20.848Z,1002.89
2019-03-11T09:15:20.837Z,1002.94
2019-03-11T09:16:20.831Z,1002.92
2019-03-11T09:17:20.827Z,1002.82
2019-03-11T09:18:20.816Z,1002.93
2019-03-11T09:19:20.807Z,1002.70
2019-03-11T09:20:20.799Z,1002.82
2019-03-11T09:21:20.792Z,1002.74
2019-03-11T09:22:20.787Z,1002.70
2019-03-11T09:23:20.776Z,1002.94
2019-03-11T09:24:20.767Z,1002.95
2019-03-11T09:25:20.758Z,1002.92
2019-03-11T09:26:20.752Z,1002.95
2019-03-11T09:27:20.743Z,1002.93
2019-03-11T09:28:20.756Z,1002.98
2019-03-11T09:29:20.728Z,1002.97
2019-03-11T09:30:20.718Z,1002.98
2019-03-11T09:31:20.710Z,1002.98
2019-03-11T09:32:20.704Z,1003.08
2019-03-11T09:33:20.701Z,1002.98
2019-03-11T09:34:20.689Z,1003.04
2019-03-11T09:35:20.679Z,1002.95
2019-03-11T09:36:20.672Z,1003.05
2019-03-11T09:37:20.664Z,1003.08
2019-03-11T09:38:20.657Z,1002.92
2019-03-11T09:39:20.647Z,1003.02
2019-03-11T09:40:20.639Z,1002.98
2019-03-11T09:41:20.633Z,1003.05
2019-03-11T09:42:20.626Z,1003.05
2019-03-11T09:43:20.617Z,1003.09
2019-03-11T09:44:20.610Z,1003.10
2019-03-11T09:45:20.603Z,1003.11
2019-03-11T09:46:20.600Z,1003.17
2019-03-11T09:47:20.587Z,1003.16
2019-03-11T09:48:20.582Z,1003.13
2019-03-11T09:49:20.573Z,1003.22
2019-03-11T09:50:20.565Z,1003.18
2019-03-11T09:51:20.562Z,1003.10
2019-03-11T09:52:20.549Z,1003.17
2019-03-11T09:53:20.542Z,1003.17
2019-03-11T09:54:20.533Z,1003.17
2019-03-11T09:55:20.525Z,1003.08
2019-03-11T09:56:20.519Z,1003.10
2019-03-11T09:57:20.512Z,1003.10
2019-03-11T09:58:20.504Z,1003.22
2019-03-11T09:59:20.494Z,1003.23
2019-03-11T10:00:20.489Z,1003.19
2019-03-11T10:01:20.480Z,1003.17
2019-03-11T10:02:20.473Z,1003.20
2019-03-11T10:03:20.465Z,1003.08
2019-03-11T10:04:20.458Z,1003.12
2019-03-11T10:05:20.451Z,1003.07
2019-03-11T10:06:20.444Z,1003.04
2019-03-11T10:07:20.435Z,1003.05
2019-03-11T10:08:20.429Z,1003.05
2019-03-11T10:09:20.420Z,1003.00
2019-03-11T10:10:20.412Z,1003.04
2019-03-11T10:11:20.405Z,1003.19
2019-03-11T10:12:20.399Z,1003.13
2019-03-11T10:13:20.390Z,1003.34
2019-03-11T10:14:20.383Z,1003.28
2019-03-11T10:15:20.375Z,1003.30
2019-03-11T10:16:20.369Z,1003.37
2019-03-11T10:17:20.360Z,1003.40
2019-03-11T10:18:20.354Z,1003.58
2019-03-11T10:19:20.345Z,1004.33
2019-03-11T10:20:20.339Z,1004.28
2019-03-11T10:21:20.330Z,1004.04
2019-03-11T10:22:20.324Z,1003.63
2019-03-11T10:23:31.432Z,1003.70
2019-03-11T10:24:20.310Z,1003.64
2019-03-11T10:25:20.304Z,1003.57
2019-03-11T10:26:20.301Z,1003.58
2019-03-11T10:27:20.291Z,1003.49
2019-03-11T10:28:20.284Z,1003.46
2019-03-11T10:29:20.280Z,1003.60
2019-03-11T10:30:20.273Z,1003.57
2019-03-11T10:31:20.266Z,1003.58
2019-03-11T10:32:20.260Z,1003.46
2019-03-11T10:33:20.269Z,1003.58
2019-03-11T10:34:20.251Z,1003.54
2019-03-11T10:35:31.418Z,1003.62
2019-03-11T10:36:20.234Z,1003.79
2019-03-11T10:37:20.229Z,1003.83
2019-03-11T10:38:20.222Z,1003.93
2019-03-11T10:39:20.215Z,1003.89
2019-03-11T10:40:20.211Z,1003.85
2019-03-11T10:41:20.203Z,1003.88
2019-03-11T10:42:20.196Z,1004.01
2019-03-11T10:43:20.191Z,1004.05
2019-03-11T10:44:20.184Z,1003.89
2019-03-11T10:46:20.172Z,1003.80
2019-03-11T10:47:20.166Z,1003.87
2019-03-11T10:48:20.177Z,1003.75
2019-03-11T10:49:20.158Z,1003.84
2019-03-11T10:50:20.150Z,1003.85
2019-03-11T10:51:20.154Z,1003.90
2019-03-11T10:52:20.136Z,1003.90
2019-03-11T10:53:20.129Z,1003.83
2019-03-11T10:54:20.123Z,1003.82
2019-03-11T10:55:20.120Z,1003.73
2019-03-11T10:56:20.115Z,1003.86
2019-03-11T10:57:20.109Z,1003.87
2019-03-11T10:58:20.102Z,1003.67
2019-03-11T10:59:20.098Z,1003.85
2019-03-11T11:00:20.092Z,1003.77
2019-03-11T11:01:20.086Z,1003.63
2019-03-11T11:02:20.081Z,1003.67
2019-03-11T11:03:20.076Z,1003.57
2019-03-11T11:04:20.070Z,1003.51
2019-03-11T11:05:20.071Z,1003.71
2019-03-11T11:06:20.060Z,1003.83
2019-03-11T11:07:20.055Z,1003.73
2019-03-11T11:08:20.049Z,1003.88
2019-03-11T11:09:20.044Z,1003.75
2019-03-11T11:10:20.042Z,1003.73
2019-03-11T11:11:20.035Z,1003.77
2019-03-11T11:12:20.030Z,1003.73
2019-03-11T11:13:20.025Z,1003.77
2019-03-11T11:14:20.020Z,1003.91
2019-03-11T11:15:20.015Z,1003.88
2019-03-11T11:16:20.008Z,1003.77
2019-03-11T11:17:20.002Z,1003.74
2019-03-11T11:18:19.998Z,1003.64
2019-03-11T11:19:19.992Z,1003.73
2019-03-11T11:20:19.987Z,1003.83
2019-03-11T11:21:19.980Z,1003.92
2019-03-11T11:22:19.976Z,1004.00
2019-03-11T11:23:19.969Z,1004.06
2019-03-11T11:24:19.964Z,1004.21
2019-03-11T11:25:19.965Z,1004.04
2019-03-11T11:26:19.952Z,1004.17
2019-03-11T11:27:19.947Z,1004.08
2019-03-11T11:28:19.940Z,1004.01
2019-03-11T11:29:19.934Z,1003.94
2019-03-11T11:30:19.930Z,1003.92
2019-03-11T11:31:19.923Z,1003.83
2019-03-11T11:32:19.917Z,1003.93
2019-03-11T11:33:19.934Z,1003.96
2019-03-11T11:34:19.904Z,1003.97
2019-03-11T11:35:19.898Z,1004.00
2019-03-11T11:36:19.892Z,1003.92
2019-03-11T11:37:19.887Z,1004.02
2019-03-11T11:38:19.880Z,1004.22
2019-03-11T11:39:19.872Z,1004.31
2019-03-11T11:40:19.868Z,1004.33
2019-03-11T11:41:19.860Z,1004.36
2019-03-11T11:42:19.859Z,1004.33
2019-03-11T11:43:19.848Z,1004.38
2019-03-11T11:44:19.843Z,1004.37
2019-03-11T11:45:19.837Z,1004.15
2019-03-11T11:46:19.833Z,1004.04
2019-03-11T11:47:19.825Z,1004.34
2019-03-11T11:48:19.820Z,1004.43
2019-03-11T11:49:19.816Z,1004.34
2019-03-11T11:50:19.808Z,1004.08
2019-03-11T11:51:19.803Z,1004.15
2019-03-11T11:52:19.797Z,1004.19
2019-03-11T11:53:19.792Z,1003.97
2019-03-11T11:54:19.787Z,1003.92
2019-03-11T11:55:19.786Z,1003.94
2019-03-11T11:56:19.775Z,1003.77
2019-03-11T11:57:19.770Z,1003.87
2019-03-11T11:58:19.763Z,1003.90
2019-03-11T11:59:19.821Z,1004.09
2019-03-11T12:00:19.754Z,1004.08
2019-03-11T12:01:19.746Z,1004.01
2019-03-11T12:02:19.741Z,1003.86
2019-03-11T12:03:19.735Z,1004.00
2019-03-11T12:04:19.730Z,1004.10
2019-03-11T12:05:19.723Z,1003.89
2019-03-11T12:06:19.718Z,1004.17
2019-03-11T12:07:19.741Z,1004.34
2019-03-11T12:08:19.713Z,1004.28